Time;durP1;ratioP1;P1;durP2;ratioP2;P2;SDS_P1;SDS_P2;PMS_P1;PMS_P2;Temp;Humidity;BMP_temperature;BMP_pressure;BME280_temperature;BME280_humidity;BME280_pressure;Samples;Min_cycle;Max_cycle;Signal;HPM_P1;HPM_P2
2023/01/11 00:01:38;;;;;;;0.88;0.40;;;18.00;71.20;;;;;;7403583;19;20337;-68
2023/01/11 00:04:07;;;;;;;2.08;0.93;;;17.90;71.10;;;;;;7405437;19;20488;-67
2023/01/11 00:06:36;;;;;;;1.60;0.47;;;18.00;71.10;;;;;;7403049;19;20385;-68
2023/01/11 00:09:08;;;;;;;1.65;0.40;;;18.00;71.10;;;;;;7403068;19;19948;-68
2023/01/11 00:11:36;;;;;;;0.65;0.10;;;18.10;71.00;;;;;;7409439;19;19918;-67
2023/01/11 00:14:06;;;;;;;1.60;0.10;;;18.20;71.50;;;;;;7408909;19;19952;-68
2023/01/11 00:16:34;;;;;;;0.90;0.40;;;18.20;70.80;;;;;;7407894;19;20332;-68
2023/01/11 00:19:04;;;;;;;1.35;0.65;;;18.30;70.70;;;;;;7410230;19;19922;-67
2023/01/11 00:21:33;;;;;;;1.02;0.60;;;18.40;70.60;;;;;;7408119;19;19914;-68
2023/01/11 00:24:02;;;;;;;2.00;0.57;;;18.40;70.40;;;;;;7412062;19;19925;-67
2023/01/11 00:26:33;;;;;;;1.10;0.43;;;18.50;70.30;;;;;;7407591;19;19918;-68
2023/01/11 00:29:02;;;;;;;1.33;0.15;;;18.60;70.20;;;;;;7404887;19;19943;-67
2023/01/11 00:31:31;;;;;;;1.20;0.55;;;18.60;70.00;;;;;;7406273;19;19929;-68
2023/01/11 00:34:00;;;;;;;1.08;0.10;;;18.70;69.90;;;;;;7407508;19;20290;-67
2023/01/11 00:36:29;;;;;;;1.75;0.60;;;18.70;69.80;;;;;;7407895;19;19921;-68
2023/01/11 00:38:58;;;;;;;1.08;0.73;;;18.70;69.70;;;;;;7405825;19;19914;-68
2023/01/11 00:49:35;;;;;;;1.30;0.50;;;18.70;69.70;;;;;;7407367;19;19926;-68
2023/01/11 00:52:07;;;;;;;0.73;0.47;;;18.70;69.70;;;;;;7407142;19;19918;-68
2023/01/11 00:54:37;;;;;;;1.00;0.50;;;18.70;69.70;;;;;;7406568;19;19918;-68
2023/01/11 00:57:07;;;;;;;1.25;0.40;;;18.70;69.80;;;;;;7406906;19;19926;-68
2023/01/11 00:59:40;;;;;;;0.80;0.40;;;18.60;69.80;;;;;;7406672;19;20001;-67
2023/01/11 01:02:09;;;;;;;0.82;0.10;;;18.60;69.80;;;;;;7409999;19;19917;-67
2023/01/11 01:04:39;;;;;;;0.60;0.00;;;18.60;69.80;;;;;;7406999;19;20267;-68
2023/01/11 01:07:10;;;;;;;1.38;0.57;;;18.60;69.90;;;;;;7406885;19;19979;-68
2023/01/11 01:09:39;;;;;;;1.15;0.52;;;18.50;69.90;;;;;;7406777;19;19926;-68
2023/01/11 01:12:08;;;;;;;0.80;0.40;;;18.50;69.90;;;;;;7406660;19;19911;-67
2023/01/11 01:14:37;;;;;;;1.00;0.40;;;18.50;69.90;;;;;;7409386;19;19925;-67
2023/01/11 01:17:09;;;;;;;1.38;0.50;;;18.50;70.00;;;;;;7406504;19;19919;-68
2023/01/11 01:19:40;;;;;;;1.50;0.45;;;18.50;70.00;;;;;;7406666;19;19929;-68
2023/01/11 01:22:09;;;;;;;0.98;0.38;;;18.40;70.10;;;;;;7410326;19;20067;-67
2023/01/11 01:24:38;;;;;;;0.93;0.50;;;18.40;70.10;;;;;;7405893;19;19945;-69
2023/01/11 01:27:07;;;;;;;0.40;0.10;;;18.30;70.10;;;;;;7410606;19;20263;-67
2023/01/11 01:29:35;;;;;;;0.80;0.40;;;18.30;70.10;;;;;;7406528;19;20367;-67
2023/01/11 01:32:07;;;;;;;0.75;0.30;;;18.30;70.20;;;;;;7405214;19;19926;-68
2023/01/11 01:34:37;;;;;;;0.60;0.30;;;18.20;70.30;;;;;;7406144;19;19946;-68
2023/01/11 01:37:05;;;;;;;;;;;18.20;70.30;;;;;;7408376;19;19911;-68
2023/01/11 01:39:34;;;;;;;1.35;0.75;;;18.20;70.60;;;;;;7402947;19;19925;-68
2023/01/11 01:42:04;;;;;;;0.93;0.43;;;18.20;70.50;;;;;;7405522;19;19911;-68
2023/01/11 01:44:59;;;;;;;0.90;0.30;;;18.10;70.40;;;;;;7405686;19;19931;-68
2023/01/11 01:47:37;;;;;;;0.65;0.20;;;18.10;70.40;;;;;;7405688;19;20343;-68
2023/01/11 01:50:11;;;;;;;0.40;0.00;;;18.00;70.50;;;;;;7405617;19;20278;-68
2023/01/11 01:52:42;;;;;;;2.72;0.43;;;18.00;70.60;;;;;;7407624;19;19925;-68
2023/01/11 01:55:14;;;;;;;0.80;0.50;;;18.00;70.70;;;;;;7406339;19;19923;-68
2023/01/11 01:57:45;;;;;;;0.68;0.30;;;18.00;70.70;;;;;;7405175;19;19918;-68
2023/01/11 02:00:15;;;;;;;0.80;0.40;;;18.00;70.70;;;;;;7405638;19;19918;-68
2023/01/11 02:02:48;;;;;;;1.05;0.50;;;18.00;70.80;;;;;;7404825;19;19918;-68
2023/01/11 02:05:18;;;;;;;0.80;0.43;;;18.00;70.80;;;;;;7405609;19;19915;-68
2023/01/11 02:07:50;;;;;;;0.60;0.30;;;18.10;70.80;;;;;;7405077;19;19915;-68
2023/01/11 02:10:20;;;;;;;2.10;0.40;;;18.10;70.80;;;;;;7407284;19;19918;-68
2023/01/11 02:12:54;;;;;;;1.23;0.35;;;18.10;70.80;;;;;;7405062;19;19918;-67
2023/01/11 02:15:24;;;;;;;0.75;0.10;;;18.20;70.60;;;;;;7404433;19;19911;-68
2023/01/11 02:17:56;;;;;;;0.60;0.30;;;18.20;70.50;;;;;;7404508;19;19922;-67
2023/01/11 02:20:44;;;;;;;0.90;0.45;;;18.30;70.50;;;;;;7405746;19;19918;-68
2023/01/11 02:23:46;;;;;;;0.82;0.30;;;18.30;70.30;;;;;;7405220;19;19918;-68
2023/01/11 02:26:57;;;;;;;1.10;0.55;;;18.40;70.30;;;;;;7404073;19;19914;-68
2023/01/11 02:29:40;;;;;;;0.63;0.45;;;18.50;70.10;;;;;;7403199;19;19922;-67
2023/01/11 02:32:20;;;;;;;0.50;0.25;;;18.60;70.00;;;;;;7405270;19;19937;-67
2023/01/11 02:34:59;;;;;;;1.02;0.40;;;18.70;69.80;;;;;;7405220;19;19982;-68
2023/01/11 02:37:36;;;;;;;0.63;0.10;;;18.70;69.70;;;;;;7404913;19;19917;-68
2023/01/11 02:40:15;;;;;;;0.50;0.10;;;18.80;69.70;;;;;;7402560;19;20380;-67
2023/01/11 02:45:42;;;;;;;1.00;0.55;;;18.80;70.30;;;;;;7406592;19;19926;-68
2023/01/11 02:48:19;;;;;;;0.20;0.00;;;18.80;69.70;;;;;;7404087;19;20323;-68
2023/01/11 02:50:53;;;;;;;0.88;0.38;;;18.70;69.70;;;;;;7405758;19;19919;-68
2023/01/11 02:53:28;;;;;;;1.00;0.40;;;18.70;69.70;;;;;;7403767;19;20013;-68
2023/01/11 02:56:01;;;;;;;0.80;0.43;;;18.70;69.70;;;;;;7403167;19;19922;-68
2023/01/11 02:58:34;;;;;;;0.63;0.00;;;18.70;69.80;;;;;;7405918;19;20271;-68
2023/01/11 03:01:06;;;;;;;0.82;0.35;;;18.70;69.90;;;;;;7404437;19;19914;-68
2023/01/11 03:03:35;;;;;;;0.60;0.30;;;18.70;69.90;;;;;;7403579;19;19928;-68
2023/01/11 03:06:07;;;;;;;0.43;0.00;;;18.60;70.00;;;;;;7403510;19;20261;-68
2023/01/11 03:08:56;;;;;;;0.80;0.40;;;18.60;70.00;;;;;;7403384;19;19914;-67
2023/01/11 03:14:29;;;;;;;1.10;0.55;;;18.60;70.20;;;;;;7403636;19;20332;-68
2023/01/11 03:17:06;;;;;;;0.70;0.30;;;18.60;70.20;;;;;;7405969;19;19922;-68
2023/01/11 03:19:41;;;;;;;0.80;0.32;;;18.50;70.20;;;;;;7406884;19;19919;-68
2023/01/11 03:22:17;;;;;;;0.63;0.40;;;18.50;70.30;;;;;;7402167;19;19919;-68
2023/01/11 03:24:54;;;;;;;0.60;0.35;;;18.40;70.90;;;;;;7402248;19;19941;-68
2023/01/11 03:27:30;;;;;;;0.98;0.40;;;18.40;70.40;;;;;;7402451;19;19915;-67
2023/01/11 03:30:07;;;;;;;0.75;0.40;;;18.40;70.50;;;;;;7401965;19;19918;-68
2023/01/11 03:32:48;;;;;;;0.60;0.30;;;18.30;70.00;;;;;;7401169;19;20342;-68
2023/01/11 03:35:26;;;;;;;0.20;0.00;;;18.30;70.50;;;;;;7404967;19;19918;-68
2023/01/11 03:38:02;;;;;;;1.10;0.43;;;18.30;70.60;;;;;;7402842;19;19941;-68
2023/01/11 03:40:34;;;;;;;0.77;0.43;;;18.20;70.70;;;;;;7403716;19;19923;-68
2023/01/11 03:43:12;;;;;;;0.75;0.30;;;18.20;70.70;;;;;;7402656;19;19921;-67
2023/01/11 03:45:47;;;;;;;0.80;0.45;;;18.20;70.80;;;;;;7405427;19;20116;-68
2023/01/11 03:48:23;;;;;;;0.98;0.40;;;18.20;70.90;;;;;;7407996;19;19919;-68
2023/01/11 03:50:55;;;;;;;1.02;0.93;;;18.10;70.90;;;;;;7409340;19;19925;-68
2023/01/11 03:53:27;;;;;;;0.60;0.30;;;18.10;71.00;;;;;;7411036;19;19919;-68
2023/01/11 03:55:59;;;;;;;0.77;0.47;;;18.10;71.00;;;;;;7408332;19;19978;-68
2023/01/11 03:58:29;;;;;;;0.60;0.32;;;18.00;71.10;;;;;;7408654;19;19918;-68
2023/01/11 04:00:59;;;;;;;0.90;0.35;;;18.10;71.70;;;;;;7408943;19;19925;-67
2023/01/11 04:03:30;;;;;;;0.50;0.25;;;18.10;71.10;;;;;;7408356;19;19917;-68
2023/01/11 04:06:02;;;;;;;0.40;0.10;;;18.10;71.10;;;;;;7408361;19;20309;-68
2023/01/11 04:08:32;;;;;;;0.80;0.25;;;18.20;71.10;;;;;;7411598;19;19933;-68
2023/01/11 04:11:01;;;;;;;0.80;0.35;;;18.20;71.00;;;;;;7408654;19;19988;-68
2023/01/11 04:13:31;;;;;;;0.75;0.30;;;18.30;70.90;;;;;;7407499;19;19995;-68
2023/01/11 04:16:00;;;;;;;0.50;0.30;;;18.30;70.80;;;;;;7408203;19;19922;-68
2023/01/11 04:18:31;;;;;;;0.20;0.00;;;18.50;70.80;;;;;;7407950;19;19915;-68
2023/01/11 04:21:00;;;;;;;0.50;0.40;;;18.50;70.70;;;;;;7408385;19;19934;-68
2023/01/11 04:23:29;;;;;;;0.75;0.40;;;18.50;70.50;;;;;;7411913;19;19941;-68
2023/01/11 04:25:58;;;;;;;0.38;0.00;;;18.60;70.50;;;;;;7410383;19;19941;-68
2023/01/11 04:28:27;;;;;;;0.82;0.20;;;18.70;70.30;;;;;;7406246;19;19978;-68
2023/01/11 04:30:56;;;;;;;0.77;0.30;;;18.70;70.20;;;;;;7407546;19;20554;-68
2023/01/11 04:33:25;;;;;;;0.50;0.35;;;18.80;70.10;;;;;;7406139;19;19929;-68
2023/01/11 04:35:56;;;;;;;0.47;0.25;;;18.80;70.10;;;;;;7406755;19;19923;-68
2023/01/11 04:38:26;;;;;;;0.90;0.45;;;18.80;70.10;;;;;;7411135;19;20360;-68
2023/01/11 04:42:17;;;;;;;0.20;0.03;;;18.80;70.10;;;;;;7405950;19;20312;-68
2023/01/11 04:43:41;;;;;;;0.60;0.30;;;18.90;70.10;;;;;;7406457;19;19918;-68
2023/01/11 04:46:10;;;;;;;0.52;0.00;;;18.80;70.10;;;;;;7409434;19;19929;-68
2023/01/11 04:48:40;;;;;;;0.65;0.30;;;18.80;70.20;;;;;;7408456;19;19918;-68
2023/01/11 04:51:12;;;;;;;1.00;0.30;;;18.80;70.20;;;;;;7409779;19;19952;-68
2023/01/11 04:53:41;;;;;;;0.90;0.55;;;18.80;70.30;;;;;;7407618;19;19926;-68
2023/01/11 04:56:12;;;;;;;1.08;0.38;;;18.70;70.30;;;;;;7405100;19;19922;-67
2023/01/11 04:58:41;;;;;;;0.60;0.40;;;18.70;70.40;;;;;;7407049;19;19963;-68
2023/01/11 05:01:11;;;;;;;0.60;0.38;;;18.70;70.40;;;;;;7407483;19;19937;-68
2023/01/11 05:03:40;;;;;;;0.50;0.00;;;18.70;70.50;;;;;;7407027;19;19935;-67
2023/01/11 05:06:12;;;;;;;0.52;0.30;;;18.70;70.60;;;;;;7406660;19;19985;-68
2023/01/11 05:08:41;;;;;;;0.20;0.00;;;18.60;70.60;;;;;;7406748;19;19923;-68
2023/01/11 05:11:10;;;;;;;0.65;0.30;;;18.60;70.70;;;;;;7407221;19;20281;-68
2023/01/11 05:13:45;;;;;;;0.50;0.20;;;18.60;70.70;;;;;;7411114;19;19910;-67
2023/01/11 05:16:16;;;;;;;0.43;0.00;;;18.60;70.80;;;;;;7409476;19;20264;-68
2023/01/11 05:18:46;;;;;;;0.45;0.30;;;18.50;70.80;;;;;;7408462;19;19919;-68
2023/01/11 05:21:21;;;;;;;0.43;0.28;;;18.50;70.90;;;;;;7406654;19;19915;-68
2023/01/11 05:23:50;;;;;;;0.50;0.00;;;18.50;71.00;;;;;;7406185;19;19929;-68
2023/01/11 05:26:21;;;;;;;0.40;0.03;;;18.40;71.10;;;;;;7405132;19;20386;-68
2023/01/11 05:28:50;;;;;;;0.60;0.20;;;18.40;71.70;;;;;;7404510;19;20025;-67
2023/01/11 05:31:19;;;;;;;0.30;0.15;;;18.30;71.10;;;;;;7405366;19;20272;-68
2023/01/11 05:33:48;;;;;;;0.65;0.25;;;18.30;71.20;;;;;;7406951;19;19924;-67
2023/01/11 05:36:21;;;;;;;0.60;0.30;;;18.30;71.30;;;;;;7406758;19;19935;-68
2023/01/11 05:38:52;;;;;;;0.40;0.00;;;18.30;71.40;;;;;;7406697;19;19915;-68
2023/01/11 05:41:22;;;;;;;0.93;0.80;;;18.20;71.40;;;;;;7405707;19;19923;-68
2023/01/11 05:46:35;;;;;;;0.70;0.35;;;18.20;71.50;;;;;;7405946;19;19919;-68
2023/01/11 05:49:05;;;;;;;1.20;0.40;;;18.20;71.50;;;;;;7406754;19;19939;-68
2023/01/11 05:51:37;;;;;;;0.77;0.30;;;18.10;71.60;;;;;;7409485;19;20344;-68
2023/01/11 05:54:08;;;;;;;0.52;0.00;;;18.10;71.60;;;;;;7405298;19;20263;-68
2023/01/11 05:56:37;;;;;;;0.63;0.40;;;18.10;71.70;;;;;;7405318;19;19970;-68
2023/01/11 05:59:06;;;;;;;0.73;0.40;;;18.10;71.90;;;;;;7405236;19;19922;-68
2023/01/11 06:01:51;;;;;;;0.55;0.40;;;18.10;71.70;;;;;;7406573;19;19929;-68
2023/01/11 06:04:20;;;;;;;0.52;0.30;;;18.10;71.70;;;;;;7405489;19;19911;-68
2023/01/11 06:06:53;;;;;;;;;;;18.10;71.70;;;;;;7408176;19;19911;-68
2023/01/11 06:09:21;;;;;;;0.85;0.10;;;18.20;71.70;;;;;;7403620;19;20264;-68
2023/01/11 06:11:50;;;;;;;0.50;0.35;;;18.20;71.50;;;;;;7405536;19;19914;-68
2023/01/11 06:14:19;;;;;;;0.68;0.30;;;18.30;71.50;;;;;;7406647;19;19911;-68
2023/01/11 06:16:48;;;;;;;0.63;0.38;;;18.40;71.40;;;;;;7404934;19;19923;-68
2023/01/11 06:19:17;;;;;;;1.42;0.60;;;18.50;71.30;;;;;;7405647;19;19930;-68
2023/01/11 06:21:46;;;;;;;0.57;0.50;;;18.50;71.10;;;;;;7404604;19;19925;-68
2023/01/11 06:24:18;;;;;;;0.50;0.40;;;18.60;71.00;;;;;;7406194;19;19919;-69
2023/01/11 06:26:46;;;;;;;0.20;0.00;;;18.70;71.00;;;;;;7405481;19;19920;-68
2023/01/11 06:29:16;;;;;;;0.70;0.30;;;18.70;70.80;;;;;;7403701;19;19919;-68
2023/01/11 06:31:45;;;;;;;1.10;0.40;;;18.80;70.80;;;;;;7404631;19;19918;-68
2023/01/11 06:34:14;;;;;;;0.82;0.43;;;18.80;70.70;;;;;;7402859;19;19919;-68
2023/01/11 06:36:42;;;;;;;0.50;0.25;;;18.80;70.60;;;;;;7404846;19;19911;-68
2023/01/11 06:39:12;;;;;;;0.68;0.30;;;18.90;70.70;;;;;;7404881;19;19922;-68
2023/01/11 06:41:43;;;;;;;0.90;0.40;;;18.90;70.70;;;;;;7406611;19;19910;-68
2023/01/11 06:44:12;;;;;;;1.20;0.47;;;18.90;70.60;;;;;;7405132;19;19925;-68
2023/01/11 06:46:41;;;;;;;0.88;0.40;;;18.80;70.70;;;;;;7404097;19;19929;-68
2023/01/11 06:49:10;;;;;;;1.42;1.33;;;18.80;70.70;;;;;;7404982;19;19926;-68
2023/01/11 06:51:39;;;;;;;0.60;0.30;;;18.80;70.80;;;;;;7404109;19;19935;-67
2023/01/11 06:54:09;;;;;;;1.10;0.40;;;18.80;70.80;;;;;;7403761;19;20381;-68
2023/01/11 06:56:37;;;;;;;0.82;0.45;;;18.80;70.90;;;;;;7403078;19;19911;-68
2023/01/11 06:59:09;;;;;;;1.70;0.30;;;18.80;70.90;;;;;;7405185;19;19974;-68
2023/01/11 07:01:38;;;;;;;0.90;0.50;;;18.70;71.00;;;;;;7402090;19;19936;-69
2023/01/11 07:04:07;;;;;;;0.82;0.35;;;18.70;71.00;;;;;;7405903;19;19923;-69
2023/01/11 07:06:36;;;;;;;0.60;0.30;;;18.70;71.10;;;;;;7403537;19;19919;-69
2023/01/11 07:09:05;;;;;;;0.75;0.40;;;18.60;71.10;;;;;;7402907;19;19966;-69
2023/01/11 07:11:37;;;;;;;0.60;0.10;;;18.60;71.20;;;;;;7407423;19;20335;-69
2023/01/11 07:14:10;;;;;;;0.85;0.43;;;18.60;71.30;;;;;;7405692;19;19911;-77
2023/01/11 07:16:39;;;;;;;0.98;0.30;;;18.60;71.50;;;;;;7405285;19;19934;-78
2023/01/11 07:19:08;;;;;;;0.75;0.45;;;18.60;71.50;;;;;;7402754;19;19980;-77
2023/01/11 07:21:37;;;;;;;0.77;0.00;;;18.50;71.60;;;;;;7401301;19;20253;-71
2023/01/11 07:24:07;;;;;;;1.83;0.40;;;18.50;71.60;;;;;;7401767;19;19925;-69
2023/01/11 07:26:39;;;;;;;2.60;0.57;;;18.50;71.70;;;;;;7404986;19;19978;-69
2023/01/11 07:29:11;;;;;;;0.20;0.00;;;18.50;71.80;;;;;;7401948;19;20264;-69
2023/01/11 07:31:40;;;;;;;1.88;0.35;;;18.50;71.80;;;;;;7402853;19;19923;-69
2023/01/11 07:34:09;;;;;;;0.70;0.32;;;18.40;71.80;;;;;;7403287;19;19923;-68
2023/01/11 07:36:38;;;;;;;1.45;0.43;;;18.40;72.00;;;;;;7403230;19;19979;-69
2023/01/11 07:39:07;;;;;;;1.52;0.63;;;18.40;72.10;;;;;;7405248;19;19939;-69
2023/01/11 07:44:20;;;;;;;1.35;0.10;;;18.30;72.10;;;;;;7400711;19;20297;-69
2023/01/11 07:46:49;;;;;;;1.55;1.17;;;18.30;72.20;;;;;;7401625;19;19918;-68
2023/01/11 07:49:18;;;;;;;1.23;0.35;;;18.20;72.20;;;;;;7401583;19;19918;-69
2023/01/11 07:51:47;;;;;;;0.82;0.28;;;18.20;72.80;;;;;;7402769;19;19918;-69
2023/01/11 07:54:16;;;;;;;;;;;18.20;72.30;;;;;;7404314;19;20281;-69
2023/01/11 07:56:45;;;;;;;1.13;0.40;;;18.20;72.40;;;;;;7406094;19;19929;-69
2023/01/11 07:59:15;;;;;;;0.85;0.30;;;18.10;73.00;;;;;;7404625;19;19961;-69
2023/01/11 08:01:46;;;;;;;1.63;0.50;;;18.10;72.50;;;;;;7401938;19;20029;-69
2023/01/11 08:04:15;;;;;;;2.00;0.47;;;18.10;72.50;;;;;;7402376;19;19925;-69
2023/01/11 08:06:44;;;;;;;1.30;0.10;;;18.10;72.60;;;;;;7401662;19;19915;-69
2023/01/11 08:09:13;;;;;;;1.05;0.00;;;18.10;72.60;;;;;;7402273;19;19927;-69
2023/01/11 08:17:08;;;;;;;1.50;0.10;;;18.20;72.30;;;;;;7403931;19;19914;-69
2023/01/11 08:19:37;;;;;;;1.63;0.40;;;18.30;72.20;;;;;;7399486;19;19922;-70
2023/01/11 08:22:06;;;;;;;0.80;0.28;;;18.40;72.20;;;;;;7402385;19;19929;-69
2023/01/11 08:24:36;;;;;;;1.27;0.40;;;18.40;72.10;;;;;;7399985;19;19922;-69
2023/01/11 08:27:04;;;;;;;;;;;18.50;71.90;;;;;;7402757;19;19911;-69
2023/01/11 08:29:33;;;;;;;2.28;0.40;;;18.60;72.00;;;;;;7398301;19;19981;-70
2023/01/11 08:32:02;;;;;;;1.35;0.25;;;18.60;71.70;;;;;;7404853;19;19970;-69
2023/01/11 08:34:35;;;;;;;0.80;0.30;;;18.70;71.60;;;;;;7410199;19;19943;-69
2023/01/11 08:37:04;;;;;;;1.23;0.63;;;18.80;71.40;;;;;;7407559;19;19919;-68
2023/01/11 08:39:33;;;;;;;1.52;0.32;;;18.80;71.30;;;;;;7408057;19;19918;-69
2023/01/11 08:42:02;;;;;;;0.98;0.50;;;18.80;71.30;;;;;;7406812;19;19919;-69
2023/01/11 08:44:31;;;;;;;1.90;0.40;;;18.90;71.30;;;;;;7410886;19;19923;-69
2023/01/11 08:47:00;;;;;;;1.50;0.63;;;18.90;71.20;;;;;;7407676;19;19918;-69
2023/01/11 08:49:30;;;;;;;1.40;0.45;;;18.90;71.20;;;;;;7408844;19;20360;-69
2023/01/11 08:52:01;;;;;;;0.98;0.45;;;18.90;71.20;;;;;;7409837;19;19910;-68
2023/01/11 08:54:31;;;;;;;1.10;0.43;;;18.90;71.20;;;;;;7410390;19;19915;-69
2023/01/11 08:57:00;;;;;;;1.75;0.40;;;18.90;71.30;;;;;;7409322;19;19921;-68
2023/01/11 08:59:29;;;;;;;1.17;0.50;;;18.80;71.30;;;;;;7407392;19;19926;-69
2023/01/11 09:01:58;;;;;;;1.15;0.50;;;18.80;71.30;;;;;;7407280;19;19925;-69
2023/01/11 09:04:27;;;;;;;1.15;0.40;;;18.80;71.40;;;;;;7410915;19;19922;-69
2023/01/11 09:06:55;;;;;;;0.95;0.30;;;18.80;71.50;;;;;;7407010;19;19921;-69
2023/01/11 09:09:27;;;;;;;0.90;0.10;;;18.80;71.50;;;;;;7406032;19;20236;-69
2023/01/11 09:11:59;;;;;;;2.22;0.88;;;18.70;71.50;;;;;;7408079;19;19918;-68
2023/01/11 09:14:29;;;;;;;0.88;0.70;;;18.70;71.60;;;;;;7409184;19;19952;-69
2023/01/11 09:16:59;;;;;;;1.27;0.40;;;18.70;71.70;;;;;;7406388;19;19926;-69
2023/01/11 09:19:28;;;;;;;1.88;0.60;;;18.60;71.60;;;;;;7407938;19;19918;-69
2023/01/11 09:22:01;;;;;;;1.83;0.50;;;18.60;71.70;;;;;;7404232;19;19925;-69
2023/01/11 09:24:33;;;;;;;1.25;0.10;;;18.60;71.70;;;;;;7409525;19;19918;-69
2023/01/11 09:27:03;;;;;;;2.08;0.43;;;18.60;71.80;;;;;;7408849;19;20373;-69
2023/01/11 09:29:32;;;;;;;1.17;0.30;;;18.60;71.90;;;;;;7404937;19;19915;-69
2023/01/11 09:32:01;;;;;;;3.63;0.63;;;18.50;71.90;;;;;;7408655;19;19974;-68
2023/01/11 09:34:30;;;;;;;1.40;0.47;;;18.50;72.00;;;;;;7404616;19;19986;-69
2023/01/11 09:37:01;;;;;;;2.03;1.05;;;18.50;72.00;;;;;;7407451;19;19915;-69
2023/01/11 09:39:33;;;;;;;1.00;0.32;;;18.40;72.00;;;;;;7406153;19;20393;-69
2023/01/11 09:42:35;;;;;;;2.53;1.05;;;18.40;72.10;;;;;;7407483;19;19922;-69
2023/01/11 09:45:13;;;;;;;1.77;0.47;;;18.40;72.10;;;;;;7405856;19;20388;-69
2023/01/11 09:47:47;;;;;;;1.92;0.75;;;18.40;72.20;;;;;;7405488;19;19940;-69
2023/01/11 09:50:20;;;;;;;1.63;0.55;;;18.30;72.30;;;;;;7409010;19;19930;-69
2023/01/11 09:52:53;;;;;;;1.05;0.35;;;18.30;72.90;;;;;;7405693;19;19974;-69
2023/01/11 09:55:35;;;;;;;1.20;0.65;;;18.30;72.30;;;;;;7405907;19;19923;-69
2023/01/11 09:58:21;;;;;;;0.88;0.30;;;18.30;72.40;;;;;;7407709;19;20361;-68
2023/01/11 10:00:59;;;;;;;1.45;1.15;;;18.20;72.40;;;;;;7404529;19;19945;-69
2023/01/11 10:04:05;;;;;;;1.15;0.52;;;18.20;72.50;;;;;;7404520;19;19929;-68
2023/01/11 10:06:46;;;;;;;1.83;0.60;;;18.20;73.10;;;;;;7405080;19;20357;-69
2023/01/11 10:09:30;;;;;;;2.65;0.63;;;18.20;72.60;;;;;;7405600;19;19994;-69
2023/01/11 10:12:13;;;;;;;2.20;0.50;;;18.20;72.60;;;;;;7405512;19;19996;-69
2023/01/11 10:14:56;;;;;;;1.40;0.40;;;18.20;72.50;;;;;;7404869;19;19944;-69
2023/01/11 10:17:40;;;;;;;1.60;0.50;;;18.20;72.50;;;;;;7407805;19;19918;-69
2023/01/11 10:20:26;;;;;;;1.58;0.50;;;18.30;72.50;;;;;;7405086;19;19927;-69
2023/01/11 10:23:03;;;;;;;1.65;0.52;;;18.40;72.40;;;;;;7405174;19;19926;-69
2023/01/11 10:25:41;;;;;;;0.88;0.38;;;18.40;72.30;;;;;;7406025;19;19922;-69
2023/01/11 10:28:21;;;;;;;1.52;0.10;;;18.50;72.20;;;;;;7403338;19;20268;-68
2023/01/11 10:31:06;;;;;;;1.50;0.50;;;18.50;72.10;;;;;;7405876;19;19922;-69
2023/01/11 10:33:56;;;;;;;2.33;0.45;;;18.60;71.90;;;;;;7403532;19;19914;-69
2023/01/11 10:36:50;;;;;;;1.27;0.50;;;18.70;71.80;;;;;;7404340;19;19925;-68
2023/01/11 10:39:38;;;;;;;;;;;18.80;71.70;;;;;;7408199;19;19933;-69
2023/01/11 10:42:14;;;;;;;1.05;0.63;;;18.90;71.70;;;;;;7404334;19;19915;-69
2023/01/11 10:44:56;;;;;;;0.93;0.50;;;19.00;71.40;;;;;;7403723;19;19926;-69
2023/01/11 10:47:30;;;;;;;1.10;0.40;;;19.00;71.30;;;;;;7405835;19;19922;-69
2023/01/11 10:50:03;;;;;;;0.90;0.13;;;19.00;71.20;;;;;;7406814;19;20294;-69
2023/01/11 10:52:40;;;;;;;1.35;0.57;;;19.10;71.20;;;;;;7403759;19;19918;-69
2023/01/11 10:55:18;;;;;;;1.55;0.40;;;19.10;71.20;;;;;;7401892;19;19923;-69
2023/01/11 10:57:57;;;;;;;2.10;1.00;;;19.10;71.20;;;;;;7392859;19;19930;-69
2023/01/11 11:00:37;;;;;;;2.58;0.50;;;19.10;71.20;;;;;;7389791;19;19928;-64
2023/01/11 11:03:42;;;;;;;1.27;0.55;;;19.10;71.30;;;;;;7396294;19;20193;-64
2023/01/11 11:06:16;;;;;;;0.98;0.10;;;19.10;71.40;;;;;;7397352;19;19918;-63
2023/01/11 11:08:53;;;;;;;2.50;0.60;;;19.10;71.50;;;;;;7405879;19;19926;-64
2023/01/11 11:11:40;;;;;;;3.20;0.70;;;19.10;71.60;;;;;;7405630;19;20331;-63
2023/01/11 11:14:17;;;;;;;1.10;0.75;;;19.10;72.20;;;;;;7402634;19;20255;-64
2023/01/11 11:17:00;;;;;;;1.75;0.40;;;19.10;71.70;;;;;;7401909;19;19935;-64
2023/01/11 11:19:33;;;;;;;3.40;0.98;;;19.00;71.80;;;;;;7405346;19;19919;-64
2023/01/11 11:22:02;;;;;;;2.28;0.93;;;19.00;71.80;;;;;;7403916;19;19950;-64
2023/01/11 11:24:39;;;;;;;2.00;0.70;;;19.00;72.00;;;;;;7401166;19;19926;-64
2023/01/11 11:27:22;;;;;;;2.00;0.88;;;19.00;72.00;;;;;;7404263;19;19974;-64
2023/01/11 11:29:53;;;;;;;2.13;0.10;;;19.00;72.10;;;;;;7403593;19;20014;-64
2023/01/11 11:32:29;;;;;;;2.58;1.10;;;19.00;72.30;;;;;;7402717;19;19918;-64
2023/01/11 11:34:58;;;;;;;3.70;0.20;;;18.90;72.30;;;;;;7401109;19;20309;-64
2023/01/11 11:37:33;;;;;;;1.23;0.65;;;18.90;72.30;;;;;;7403030;19;19922;-64
2023/01/11 11:40:01;;;;;;;1.80;0.70;;;18.90;72.40;;;;;;7404853;19;19923;-63
2023/01/11 11:42:30;;;;;;;2.58;0.22;;;18.90;72.50;;;;;;7400680;19;19934;-64
2023/01/11 11:45:15;;;;;;;2.03;0.55;;;18.90;72.60;;;;;;7402875;19;19952;-63
2023/01/11 11:48:02;;;;;;;1.38;0.10;;;18.90;72.60;;;;;;7402494;19;19982;-64
2023/01/11 11:50:32;;;;;;;2.03;0.60;;;18.90;72.80;;;;;;7401802;19;19936;-63
2023/01/11 11:53:05;;;;;;;1.38;0.43;;;18.90;72.70;;;;;;7402919;19;20458;-63
2023/01/11 11:55:36;;;;;;;1.73;0.20;;;18.90;72.80;;;;;;7403758;19;19930;-64
2023/01/11 11:58:12;;;;;;;1.52;0.15;;;18.90;72.90;;;;;;7403262;19;20394;-63
2023/01/11 12:00:47;;;;;;;2.13;0.60;;;18.80;72.90;;;;;;7400152;19;19922;-63
2023/01/11 12:03:23;;;;;;;1.20;0.50;;;18.80;72.90;;;;;;7398490;19;19958;-64
2023/01/11 12:05:59;;;;;;;2.70;0.43;;;18.80;73.00;;;;;;7404359;19;19968;-64
2023/01/11 12:08:29;;;;;;;3.10;0.57;;;18.80;73.00;;;;;;7407085;19;19932;-63
2023/01/11 12:11:02;;;;;;;1.70;0.52;;;18.80;73.10;;;;;;7410417;19;19942;-63
2023/01/11 12:13:36;;;;;;;1.42;0.55;;;18.80;73.10;;;;;;7407250;19;19974;-63
2023/01/11 12:16:08;;;;;;;1.67;0.60;;;18.80;73.10;;;;;;7406620;19;19931;-63
2023/01/11 12:18:43;;;;;;;1.20;0.70;;;18.80;73.10;;;;;;7407106;19;19923;-63
2023/01/11 12:21:22;;;;;;;;;;;18.80;73.10;;;;;;7406914;19;19940;-63
2023/01/11 12:24:11;;;;;;;2.30;0.60;;;18.80;73.20;;;;;;7404588;19;19935;-63
2023/01/11 12:26:48;;;;;;;1.60;0.60;;;18.90;73.30;;;;;;7403007;19;19982;-64
2023/01/11 12:29:50;;;;;;;2.13;0.70;;;18.90;73.10;;;;;;7407787;19;19922;-64
2023/01/11 12:32:34;;;;;;;1.67;0.77;;;18.90;73.20;;;;;;7405038;19;19929;-64
2023/01/11 12:35:25;;;;;;;1.70;0.80;;;18.90;73.20;;;;;;7409654;19;19919;-64
2023/01/11 12:38:13;;;;;;;1.40;0.40;;;18.90;73.20;;;;;;7406635;19;19925;-63
2023/01/11 12:40:58;;;;;;;4.53;0.70;;;19.00;73.30;;;;;;7408685;19;19911;-63
2023/01/11 12:43:38;;;;;;;2.55;0.70;;;19.00;73.20;;;;;;7405176;19;19923;-64
2023/01/11 12:46:17;;;;;;;2.85;0.75;;;19.00;73.20;;;;;;7407776;19;19933;-64
2023/01/11 12:49:04;;;;;;;2.00;0.65;;;19.00;73.10;;;;;;7406885;19;19918;-64
2023/01/11 12:51:57;;;;;;;3.35;0.80;;;19.00;73.10;;;;;;7408815;19;19934;-64
2023/01/11 12:54:43;;;;;;;1.40;0.20;;;19.00;73.30;;;;;;7410545;19;19930;-64
2023/01/11 12:57:18;;;;;;;2.42;0.60;;;19.00;73.20;;;;;;7408298;19;19921;-64
2023/01/11 13:00:04;;;;;;;3.25;0.55;;;19.10;73.20;;;;;;7406432;19;19939;-64
2023/01/11 13:02:54;;;;;;;2.53;0.50;;;19.10;73.30;;;;;;7403739;19;20676;-64
2023/01/11 13:05:28;;;;;;;1.77;0.50;;;19.10;73.20;;;;;;7404970;19;19931;-64
2023/01/11 13:08:09;;;;;;;1.65;0.57;;;19.00;73.20;;;;;;7407075;19;19926;-64
2023/01/11 13:10:57;;;;;;;2.05;0.60;;;19.10;73.30;;;;;;7405185;19;19923;-64
2023/01/11 13:13:33;;;;;;;2.33;0.93;;;19.00;73.10;;;;;;7406162;19;19918;-64
2023/01/11 13:16:08;;;;;;;3.72;0.80;;;19.00;73.20;;;;;;7406689;19;20387;-64
2023/01/11 13:18:45;;;;;;;3.67;0.80;;;18.90;73.20;;;;;;7404521;19;19919;-64
2023/01/11 13:21:24;;;;;;;2.70;0.73;;;18.90;73.20;;;;;;7406173;19;19924;-64
2023/01/11 13:24:01;;;;;;;2.85;0.68;;;18.90;73.30;;;;;;7402797;19;19919;-64
2023/01/11 13:26:36;;;;;;;2.88;0.85;;;18.90;73.30;;;;;;7405195;19;19914;-64
2023/01/11 13:29:08;;;;;;;2.28;0.82;;;18.90;73.30;;;;;;7406107;19;19925;-64
2023/01/11 13:31:38;;;;;;;2.90;0.65;;;18.90;73.30;;;;;;7404384;19;19923;-64
2023/01/11 13:34:18;;;;;;;3.10;0.38;;;18.90;73.30;;;;;;7404263;19;19930;-64
2023/01/11 13:36:53;;;;;;;2.88;0.20;;;18.80;73.20;;;;;;7405290;19;19922;-64
2023/01/11 13:39:30;;;;;;;2.25;0.82;;;18.80;73.30;;;;;;7403715;19;19926;-64
2023/01/11 13:42:04;;;;;;;2.63;0.70;;;18.80;73.30;;;;;;7403247;19;19945;-64
2023/01/11 13:44:36;;;;;;;2.35;0.65;;;18.80;73.30;;;;;;7405310;19;19919;-64
2023/01/11 13:47:11;;;;;;;2.92;0.82;;;18.80;73.40;;;;;;7404663;19;19915;-64